Time;durP1;ratioP1;P1;durP2;ratioP2;P2;SDS_P1;SDS_P2;PMS_P1;PMS_P2;Temp;Humidity;BMP_temperature;BMP_pressure;BME280_temperature;BME280_humidity;BME280_pressure;Samples;Min_cycle;Max_cycle;Signal;HPM_P1;HPM_P2
2021/10/06 00:00:08;;;;;;;2.75;0.95;;;;;;;-139.48;100.00;61774.03;4961344;28;20467;-67
2021/10/06 00:02:52;;;;;;;2.88;1.58;;;;;;;-139.48;100.00;61774.03;4974634;28;20050;-65
2021/10/06 00:05:36;;;;;;;4.72;1.27;;;;;;;-139.48;100.00;61774.03;4975825;28;20526;-68
2021/10/06 00:08:20;;;;;;;8.10;1.13;;;;;;;-139.48;100.00;61774.03;4975074;28;20138;-68
2021/10/06 00:11:05;;;;;;;6.07;1.63;;;;;;;-139.48;100.00;61774.03;4975953;28;20049;-69
2021/10/06 00:13:49;;;;;;;4.43;1.10;;;;;;;-139.48;100.00;61774.03;4974415;28;20130;-69
2021/10/06 00:16:33;;;;;;;3.00;0.80;;;;;;;-139.48;100.00;61774.03;4961025;28;20049;-69
2021/10/06 00:19:18;;;;;;;4.03;1.15;;;;;;;-139.48;100.00;61774.03;4974427;28;20046;-69
2021/10/06 00:22:02;;;;;;;3.05;1.10;;;;;;;-139.48;100.00;61774.03;4975640;28;20077;-69
2021/10/06 00:24:47;;;;;;;5.03;1.02;;;;;;;-139.48;100.00;61774.03;4975272;28;20101;-69
2021/10/06 00:27:31;;;;;;;6.50;1.35;;;;;;;-139.48;100.00;61774.03;4974451;28;20102;-70
2021/10/06 00:30:15;;;;;;;3.30;1.20;;;;;;;-139.48;100.00;61774.03;4974431;28;20053;-69
2021/10/06 00:33:00;;;;;;;3.40;1.13;;;;;;;-139.48;100.00;61774.03;4974423;28;20140;-66
2021/10/06 00:35:43;;;;;;;4.35;1.10;;;;;;;-139.48;100.00;61774.03;4975326;28;20077;-68
2021/10/06 00:38:27;;;;;;;3.47;1.13;;;;;;;-139.48;100.00;61774.03;4974367;28;20105;-67
2021/10/06 00:41:11;;;;;;;4.63;1.50;;;;;;;-139.48;100.00;61774.03;4974932;28;20420;-68
2021/10/06 00:43:55;;;;;;;5.38;1.00;;;;;;;-139.48;100.00;61774.03;4960744;28;20459;-69
2021/10/06 00:46:39;;;;;;;3.95;0.82;;;;;;;-139.48;100.00;61774.03;4973880;28;20519;-68
2021/10/06 00:49:23;;;;;;;5.70;1.08;;;;;;;-139.48;100.00;61774.03;4975141;28;20460;-69
2021/10/06 00:52:10;;;;;;;5.45;1.05;;;;;;;-139.48;100.00;61774.03;4960417;28;20408;-69
2021/10/06 00:54:54;;;;;;;1.73;0.98;;;;;;;-139.48;100.00;61774.03;4973943;28;20408;-68
2021/10/06 00:57:37;;;;;;;4.65;1.15;;;;;;;-139.48;100.00;61774.03;4973765;28;20054;-69
2021/10/06 01:00:21;;;;;;;2.58;1.20;;;;;;;-139.48;100.00;61774.03;4974639;28;20097;-69
2021/10/06 01:03:05;;;;;;;3.72;1.08;;;;;;;-139.48;100.00;61774.03;4974896;28;20468;-69
2021/10/06 01:05:50;;;;;;;5.20;1.33;;;;;;;-139.48;100.00;61774.03;4974460;28;20475;-69
2021/10/06 01:08:35;;;;;;;2.45;1.17;;;;;;;-139.48;100.00;61774.03;4960246;28;20407;-68
2021/10/06 01:11:19;;;;;;;1.70;0.90;;;;;;;-139.48;100.00;61774.03;4974687;28;20058;-68
2021/10/06 01:14:04;;;;;;;4.63;1.10;;;;;;;-139.48;100.00;61774.03;4973669;28;20085;-69
2021/10/06 01:16:49;;;;;;;7.22;1.33;;;;;;;-139.48;100.00;61774.03;4974022;28;20104;-68
2021/10/06 01:19:32;;;;;;;4.32;0.90;;;;;;;-139.48;100.00;61774.03;4960287;28;20061;-66
2021/10/06 01:22:16;;;;;;;3.30;1.10;;;;;;;-139.48;100.00;61774.03;4973389;28;20064;-69
2021/10/06 01:25:01;;;;;;;5.57;1.33;;;;;;;-139.48;100.00;61774.03;4973332;28;20101;-69
2021/10/06 01:27:46;;;;;;;4.07;1.45;;;;;;;-139.48;100.00;61774.03;4973857;28;20186;-69
2021/10/06 01:30:30;;;;;;;1.80;1.05;;;;;;;-139.48;100.00;61774.03;4973298;28;20552;-68
2021/10/06 01:33:14;;;;;;;8.48;1.23;;;;;;;-139.48;100.00;61774.03;4975079;28;20049;-69
2021/10/06 01:35:59;;;;;;;4.38;1.00;;;;;;;-139.48;100.00;61774.03;4963641;28;20570;-69
2021/10/06 01:38:42;;;;;;;2.45;1.10;;;;;;;-139.48;100.00;61774.03;4978537;28;20049;-69
2021/10/06 01:41:30;;;;;;;2.33;1.10;;;;;;;-139.48;100.00;61774.03;4977279;28;20126;-69
2021/10/06 01:44:16;;;;;;;3.70;1.23;;;;;;;-139.48;100.00;61774.03;4977356;28;20057;-69
2021/10/06 01:47:00;;;;;;;3.88;1.00;;;;;;;-139.48;100.00;61774.03;4977365;28;20521;-69
2021/10/06 01:49:46;;;;;;;6.07;1.10;;;;;;;-139.48;100.00;61774.03;4978345;28;20188;-69
2021/10/06 01:52:30;;;;;;;4.65;1.30;;;;;;;-139.48;100.00;61774.03;4977262;28;20050;-69
2021/10/06 01:55:14;;;;;;;7.53;1.27;;;;;;;-139.48;100.00;61774.03;4963568;28;20129;-69
2021/10/06 01:58:01;;;;;;;4.13;1.20;;;;;;;-139.48;100.00;61774.03;4976951;28;20069;-68
2021/10/06 02:00:48;;;;;;;4.80;1.10;;;;;;;-139.48;100.00;61774.03;4963381;28;20435;-68
2021/10/06 02:03:32;;;;;;;5.85;1.00;;;;;;;-139.48;100.00;61774.03;4977039;28;20045;-69
2021/10/06 02:06:16;;;;;;;4.00;1.20;;;;;;;-139.48;100.00;61774.03;4977074;28;20058;-69
2021/10/06 02:09:00;;;;;;;6.18;1.10;;;;;;;-139.48;100.00;61774.03;4977966;28;20113;-69
2021/10/06 02:11:44;;;;;;;2.80;0.88;;;;;;;-139.48;100.00;61774.03;4963494;28;20404;-68
2021/10/06 02:14:28;;;;;;;4.85;1.25;;;;;;;-139.48;100.00;61774.03;4976829;28;20053;-69
2021/10/06 02:17:12;;;;;;;5.05;1.08;;;;;;;-139.48;100.00;61774.03;4976838;28;20469;-69
2021/10/06 02:19:56;;;;;;;4.15;1.40;;;;;;;-139.48;100.00;61774.03;4976502;28;20471;-69
2021/10/06 02:22:39;;;;;;;4.25;1.05;;;;;;;-139.48;100.00;61774.03;4976713;28;20049;-69
2021/10/06 02:25:23;;;;;;;6.75;1.65;;;;;;;-139.48;100.00;61774.03;5090438;22;20640;-70
2021/10/06 02:28:08;;;;;;;5.43;1.52;;;;;;;-139.48;100.00;61774.03;4995924;28;20077;-70
2021/10/06 02:30:51;;;;;;;5.40;1.10;;;;;;;-139.48;100.00;61774.03;4996088;28;20053;-71
2021/10/06 02:33:35;;;;;;;3.80;1.10;;;;;;;-139.48;100.00;61774.03;4995999;28;20141;-70
2021/10/06 02:36:19;;;;;;;3.78;1.35;;;;;;;-139.48;100.00;61774.03;5009607;28;20053;-69
2021/10/06 02:39:03;;;;;;;7.00;1.17;;;;;;;-139.48;100.00;61774.03;4982248;28;20045;-70
2021/10/06 02:41:47;;;;;;;6.32;1.52;;;;;;;-139.48;100.00;61774.03;4981813;28;20040;-70
2021/10/06 02:44:31;;;;;;;2.83;1.35;;;;;;;-139.48;100.00;61774.03;4995496;28;20164;-71
2021/10/06 02:47:15;;;;;;;5.38;1.70;;;;;;;-139.48;100.00;61774.03;4995790;28;20080;-70
2021/10/06 02:49:59;;;;;;;4.65;1.02;;;;;;;-139.48;100.00;61774.03;4996695;28;20061;-70
2021/10/06 02:52:42;;;;;;;3.15;1.50;;;;;;;-139.48;100.00;61774.03;4995600;28;20053;-70
2021/10/06 02:55:27;;;;;;;6.35;1.50;;;;;;;-139.48;100.00;61774.03;4981888;28;20070;-70
2021/10/06 02:58:11;;;;;;;3.70;1.15;;;;;;;-139.48;100.00;61774.03;4996290;28;20122;-70
2021/10/06 03:00:55;;;;;;;7.13;1.40;;;;;;;-139.48;100.00;61774.03;4995510;28;20096;-71
2021/10/06 03:03:39;;;;;;;3.38;1.23;;;;;;;-139.48;100.00;61774.03;4995436;28;20081;-70
2021/10/06 03:06:23;;;;;;;;;;;;;;;-139.48;100.00;61774.03;4982174;28;20093;-70
2021/10/06 03:09:07;;;;;;;5.15;1.52;;;;;;;-139.48;100.00;61774.03;4996300;28;19976;-70
2021/10/06 03:11:51;;;;;;;8.13;1.42;;;;;;;-139.48;100.00;61774.03;4981416;28;20044;-70
2021/10/06 03:14:35;;;;;;;4.93;1.25;;;;;;;-139.48;100.00;61774.03;4981234;28;20173;-70
2021/10/06 03:17:19;;;;;;;5.88;1.92;;;;;;;-139.48;100.00;61774.03;4995145;28;20049;-70
2021/10/06 03:20:05;;;;;;;7.18;1.50;;;;;;;-139.48;100.00;61774.03;4981139;28;20077;-70
2021/10/06 03:22:49;;;;;;;4.03;1.48;;;;;;;-139.48;100.00;61774.03;4994755;28;20064;-70
2021/10/06 03:25:33;;;;;;;;;;;;;;;-139.48;100.00;61774.03;4981522;28;20048;-70
2021/10/06 03:28:18;;;;;;;3.37;1.40;;;;;;;-139.48;100.00;61774.03;4981502;28;20330;-70
2021/10/06 03:31:02;;;;;;;6.55;1.60;;;;;;;-139.48;100.00;61774.03;4994763;28;20068;-70
2021/10/06 03:33:45;;;;;;;5.50;1.98;;;;;;;-139.48;100.00;61774.03;4994812;28;20132;-70
2021/10/06 03:36:29;;;;;;;5.15;1.60;;;;;;;-139.48;100.00;61774.03;4994749;28;20049;-70
2021/10/06 03:39:13;;;;;;;4.88;1.17;;;;;;;-139.48;100.00;61774.03;4980932;28;20511;-70
2021/10/06 03:41:57;;;;;;;6.38;1.63;;;;;;;-139.48;100.00;61774.03;4980949;28;20065;-70
2021/10/06 03:44:41;;;;;;;5.88;1.98;;;;;;;-139.48;100.00;61774.03;4995665;28;20128;-70
2021/10/06 03:47:24;;;;;;;2.92;1.20;;;;;;;-139.48;100.00;61774.03;4994338;28;20502;-70
2021/10/06 03:50:13;;;;;;;6.43;1.60;;;;;;;-139.48;100.00;61774.03;4980515;28;20100;-69
2021/10/06 03:52:57;;;;;;;5.10;1.88;;;;;;;-139.48;100.00;61774.03;4994401;28;20081;-70
2021/10/06 03:55:41;;;;;;;5.97;1.23;;;;;;;-139.48;100.00;61774.03;4980102;28;20514;-71
2021/10/06 03:58:25;;;;;;;3.85;1.60;;;;;;;-139.48;100.00;61774.03;4980473;28;20140;-70
2021/10/06 04:01:10;;;;;;;3.33;1.10;;;;;;;-139.48;100.00;61774.03;4995252;28;20137;-70
2021/10/06 04:03:54;;;;;;;5.47;1.20;;;;;;;-139.48;100.00;61774.03;4980578;28;20045;-70
2021/10/06 04:06:38;;;;;;;5.00;1.50;;;;;;;-139.48;100.00;61774.03;4993935;28;20100;-70
2021/10/06 04:09:22;;;;;;;4.80;1.27;;;;;;;-139.48;100.00;61774.03;4993906;28;20100;-70
2021/10/06 04:12:06;;;;;;;1.33;0.90;;;;;;;-139.48;100.00;61774.03;4994054;28;20084;-71
2021/10/06 04:14:50;;;;;;;6.20;1.35;;;;;;;-139.48;100.00;61774.03;4993721;28;20081;-71
2021/10/06 04:17:34;;;;;;;6.07;1.60;;;;;;;-139.48;100.00;61774.03;4994014;28;20053;-69
2021/10/06 04:20:18;;;;;;;7.70;1.42;;;;;;;-139.48;100.00;61774.03;4980353;28;20050;-70
2021/10/06 04:23:02;;;;;;;6.85;1.35;;;;;;;-139.48;100.00;61774.03;4994982;28;20092;-71
2021/10/06 04:25:46;;;;;;;14.73;1.27;;;;;;;-139.48;100.00;61774.03;4993456;28;20160;-70
2021/10/06 04:28:30;;;;;;;7.65;1.25;;;;;;;-139.48;100.00;61774.03;4993893;28;20052;-70
2021/10/06 04:31:14;;;;;;;5.78;2.00;;;;;;;-139.48;100.00;61774.03;4993525;28;20053;-70
2021/10/06 04:33:58;;;;;;;3.03;1.60;;;;;;;-139.48;100.00;61774.03;4993739;28;20088;-68
2021/10/06 04:36:42;;;;;;;6.22;1.58;;;;;;;-139.48;100.00;61774.03;4993393;28;20053;-71
2021/10/06 04:39:26;;;;;;;4.93;1.25;;;;;;;-139.48;100.00;61774.03;4980224;28;20061;-71
2021/10/06 04:42:10;;;;;;;5.40;1.27;;;;;;;-139.48;100.00;61774.03;4979831;28;20415;-70
2021/10/06 04:44:53;;;;;;;4.50;1.33;;;;;;;-139.48;100.00;61774.03;4979733;28;20470;-71
2021/10/06 04:47:38;;;;;;;4.70;1.38;;;;;;;-139.48;100.00;61774.03;4993501;28;20112;-70
2021/10/06 04:50:26;;;;;;;6.70;1.15;;;;;;;-139.48;100.00;61774.03;4979478;28;20105;-70
2021/10/06 04:53:09;;;;;;;4.28;1.30;;;;;;;-139.48;100.00;61774.03;4994314;28;20057;-70
2021/10/06 04:55:53;;;;;;;3.60;1.48;;;;;;;-139.48;100.00;61774.03;4994455;28;20045;-70
2021/10/06 04:58:37;;;;;;;;;;;;;;;-139.48;100.00;61774.03;4993473;28;20069;-70
2021/10/06 05:01:21;;;;;;;3.50;1.40;;;;;;;-139.48;100.00;61774.03;4993379;28;19936;-71
2021/10/06 05:04:06;;;;;;;5.57;1.48;;;;;;;-139.48;100.00;61774.03;4994305;28;20116;-70
2021/10/06 05:06:50;;;;;;;8.57;1.67;;;;;;;-139.48;100.00;61774.03;4978811;28;20112;-71
2021/10/06 05:09:34;;;;;;;7.68;1.50;;;;;;;-139.48;100.00;61774.03;4993765;28;20061;-70
2021/10/06 05:12:17;;;;;;;6.28;1.20;;;;;;;-139.48;100.00;61774.03;4993065;28;20054;-70
2021/10/06 05:15:02;;;;;;;5.82;1.27;;;;;;;-139.48;100.00;61774.03;4993152;28;20506;-70
2021/10/06 05:17:45;;;;;;;;;;;;;;;-139.48;100.00;61774.03;4994576;28;20112;-70
2021/10/06 05:20:30;;;;;;;6.78;2.08;;;;;;;-139.48;100.00;61774.03;4993078;28;19920;-70
2021/10/06 05:23:13;;;;;;;7.88;1.88;;;;;;;-139.48;100.00;61774.03;4979385;28;20447;-71
2021/10/06 05:25:58;;;;;;;4.32;1.20;;;;;;;-139.48;100.00;61774.03;4992601;28;20129;-71
2021/10/06 05:28:42;;;;;;;8.35;1.40;;;;;;;-139.48;100.00;61774.03;4993229;28;20057;-71
2021/10/06 05:31:25;;;;;;;5.78;1.65;;;;;;;-139.48;100.00;61774.03;4992880;28;20057;-70
2021/10/06 05:34:09;;;;;;;3.17;1.20;;;;;;;-139.48;100.00;61774.03;4993973;28;20514;-70
2021/10/06 05:36:53;;;;;;;7.05;1.98;;;;;;;-139.48;100.00;61774.03;4992590;28;20042;-70
2021/10/06 05:39:37;;;;;;;2.63;1.27;;;;;;;-139.48;100.00;61774.03;4993889;28;20065;-70
2021/10/06 05:42:21;;;;;;;3.78;1.38;;;;;;;-139.48;100.00;61774.03;4979388;28;20080;-70
2021/10/06 05:45:06;;;;;;;5.63;1.17;;;;;;;-139.48;100.00;61774.03;4992621;28;20137;-71
2021/10/06 05:47:50;;;;;;;2.88;1.08;;;;;;;-139.48;100.00;61774.03;4978848;28;20046;-71
2021/10/06 05:50:35;;;;;;;5.47;2.17;;;;;;;-139.48;100.00;61774.03;4993090;28;20511;-70
2021/10/06 05:53:19;;;;;;;3.47;1.45;;;;;;;-139.48;100.00;61774.03;4993435;28;20049;-70
2021/10/06 05:56:02;;;;;;;9.18;1.50;;;;;;;-139.48;100.00;61774.03;4978720;28;20133;-70
2021/10/06 05:58:46;;;;;;;5.32;1.50;;;;;;;-139.48;100.00;61774.03;4979250;28;20121;-69
2021/10/06 06:01:30;;;;;;;7.38;1.80;;;;;;;-139.48;100.00;61774.03;4992433;28;20065;-71
2021/10/06 06:04:17;;;;;;;5.65;1.65;;;;;;;-139.48;100.00;61774.03;4992650;28;20061;-70
2021/10/06 06:07:02;;;;;;;4.75;1.33;;;;;;;-139.48;100.00;61774.03;4992302;28;20053;-70
2021/10/06 06:09:46;;;;;;;3.10;1.63;;;;;;;-139.48;100.00;61774.03;4992425;28;20084;-70
2021/10/06 06:12:30;;;;;;;6.75;1.33;;;;;;;-139.48;100.00;61774.03;4993566;28;20101;-70
2021/10/06 06:15:14;;;;;;;5.28;1.52;;;;;;;-139.48;100.00;61774.03;4978661;28;20081;-69
2021/10/06 06:17:58;;;;;;;4.43;1.20;;;;;;;-139.48;100.00;61774.03;4992422;28;20053;-70
2021/10/06 06:20:42;;;;;;;7.65;1.33;;;;;;;-139.48;100.00;61774.03;4997001;28;20057;-70
2021/10/06 06:23:29;;;;;;;13.60;1.70;;;;;;;-139.48;100.00;61774.03;4996200;28;20129;-69
2021/10/06 06:26:13;;;;;;;10.98;1.70;;;;;;;-139.48;100.00;61774.03;4995780;28;20526;-70
2021/10/06 06:28:57;;;;;;;5.57;1.35;;;;;;;-139.48;100.00;61774.03;4997323;28;20126;-70
2021/10/06 06:31:41;;;;;;;9.30;2.22;;;;;;;-139.48;100.00;61774.03;4996722;28;20192;-70
2021/10/06 06:34:25;;;;;;;8.13;1.50;;;;;;;-139.48;100.00;61774.03;4996094;28;20530;-71
2021/10/06 06:37:09;;;;;;;4.60;1.48;;;;;;;-139.48;100.00;61774.03;4981899;28;20053;-70
2021/10/06 06:39:52;;;;;;;4.00;1.45;;;;;;;-139.48;100.00;61774.03;4995919;28;20053;-70
2021/10/06 06:42:36;;;;;;;4.78;1.77;;;;;;;-139.48;100.00;61774.03;4996545;28;20559;-70
2021/10/06 06:45:21;;;;;;;8.93;1.33;;;;;;;-139.48;100.00;61774.03;4995789;28;20054;-69
2021/10/06 06:48:05;;;;;;;2.70;1.20;;;;;;;-139.48;100.00;61774.03;4981700;28;20053;-70
2021/10/06 06:50:53;;;;;;;6.10;1.50;;;;;;;-139.48;100.00;61774.03;4981534;28;20427;-70
2021/10/06 06:53:37;;;;;;;6.38;1.75;;;;;;;-139.48;100.00;61774.03;4995495;28;20138;-70
2021/10/06 06:56:21;;;;;;;3.00;1.20;;;;;;;-139.48;100.00;61774.03;4996493;28;20129;-70
2021/10/06 06:59:07;;;;;;;5.53;1.40;;;;;;;-139.48;100.00;61774.03;4981651;28;20418;-71
2021/10/06 07:01:53;;;;;;;4.72;1.65;;;;;;;-139.48;100.00;61774.03;4995469;28;20080;-70
2021/10/06 07:04:37;;;;;;;4.47;1.60;;;;;;;-139.48;100.00;61774.03;4981658;28;20101;-71
2021/10/06 07:07:21;;;;;;;5.28;1.35;;;;;;;-139.48;100.00;61774.03;4996495;28;20053;-71
2021/10/06 07:10:05;;;;;;;7.82;1.38;;;;;;;-139.48;100.00;61774.03;4995378;28;20132;-70
2021/10/06 07:12:49;;;;;;;3.50;1.30;;;;;;;-139.48;100.00;61774.03;4995222;28;20506;-71
2021/10/06 07:15:33;;;;;;;4.38;1.73;;;;;;;-139.48;100.00;61774.03;4981344;28;20112;-70
2021/10/06 07:18:17;;;;;;;4.68;1.58;;;;;;;-139.48;100.00;61774.03;4995181;28;20096;-70
2021/10/06 07:21:01;;;;;;;2.33;1.33;;;;;;;-139.48;100.00;61774.03;4981443;28;20049;-70
2021/10/06 07:23:45;;;;;;;6.15;1.80;;;;;;;-139.48;100.00;61774.03;4995111;28;20494;-71
2021/10/06 07:26:29;;;;;;;4.80;1.50;;;;;;;-139.48;100.00;61774.03;4994667;28;20089;-69
2021/10/06 07:29:13;;;;;;;7.90;1.58;;;;;;;-139.48;100.00;61774.03;4995027;28;20056;-71
2021/10/06 07:31:57;;;;;;;5.35;1.65;;;;;;;-139.48;100.00;61774.03;4979939;28;20137;-71
2021/10/06 07:34:41;;;;;;;8.52;1.48;;;;;;;-139.48;100.00;61774.03;4994807;28;20523;-70
2021/10/06 07:37:25;;;;;;;6.30;1.52;;;;;;;-139.48;100.00;61774.03;4981041;28;20515;-71
2021/10/06 07:40:09;;;;;;;5.57;1.50;;;;;;;-139.48;100.00;61774.03;4994782;28;20049;-70
2021/10/06 07:42:53;;;;;;;5.18;1.30;;;;;;;-139.48;100.00;61774.03;4994476;28;20097;-69
2021/10/06 07:45:37;;;;;;;10.75;2.28;;;;;;;-139.48;100.00;61774.03;4995314;28;20052;-70
2021/10/06 07:48:21;;;;;;;6.18;1.60;;;;;;;-139.48;100.00;61774.03;4994628;28;20056;-71
2021/10/06 07:51:05;;;;;;;5.32;1.13;;;;;;;-139.48;100.00;61774.03;4980712;28;20100;-70
2021/10/06 07:53:49;;;;;;;5.28;1.67;;;;;;;-139.48;100.00;61774.03;4980618;28;20103;-70
2021/10/06 07:56:33;;;;;;;5.13;1.40;;;;;;;-139.48;100.00;61774.03;4980426;28;20106;-70
2021/10/06 07:59:17;;;;;;;7.85;2.15;;;;;;;-139.48;100.00;61774.03;4994140;28;20104;-71
2021/10/06 08:02:03;;;;;;;4.35;1.02;;;;;;;-139.48;100.00;61774.03;4994171;28;20072;-70
2021/10/06 08:04:48;;;;;;;3.08;1.35;;;;;;;-139.48;100.00;61774.03;4993952;28;20085;-71
2021/10/06 08:07:32;;;;;;;2.05;1.15;;;;;;;-139.48;100.00;61774.03;4993958;28;20410;-71
2021/10/06 08:10:17;;;;;;;5.15;1.35;;;;;;;-139.48;100.00;61774.03;4994874;28;20052;-71
2021/10/06 08:13:03;;;;;;;7.43;1.98;;;;;;;-139.48;100.00;61774.03;4980333;28;20053;-70
2021/10/06 08:15:48;;;;;;;3.20;1.63;;;;;;;-139.48;100.00;61774.03;4993918;28;20073;-71
2021/10/06 08:18:32;;;;;;;3.20;1.30;;;;;;;-139.48;100.00;61774.03;4993957;28;20049;-71
2021/10/06 08:21:16;;;;;;;5.68;1.80;;;;;;;-139.48;100.00;61774.03;4993749;28;20234;-70
2021/10/06 08:23:59;;;;;;;6.55;2.22;;;;;;;-139.48;100.00;61774.03;4980196;28;20053;-70
2021/10/06 08:26:43;;;;;;;4.65;1.13;;;;;;;-139.48;100.00;61774.03;5017133;22;20062;-71
2021/10/06 08:29:27;;;;;;;4.93;1.50;;;;;;;-139.48;100.00;61774.03;5007515;28;20049;-71
2021/10/06 08:32:12;;;;;;;4.78;1.48;;;;;;;-139.48;100.00;61774.03;5007430;28;20118;-70
2021/10/06 08:34:56;;;;;;;5.10;1.27;;;;;;;-139.48;100.00;61774.03;4994882;28;20080;-70
2021/10/06 08:37:40;;;;;;;6.70;1.48;;;;;;;-139.48;100.00;61774.03;4975027;28;20130;-70
2021/10/06 08:40:23;;;;;;;7.20;1.40;;;;;;;-139.48;100.00;61774.03;4974267;28;20049;-70
2021/10/06 08:43:08;;;;;;;4.20;1.30;;;;;;;-139.48;100.00;61774.03;4973765;28;20046;-69
2021/10/06 08:45:53;;;;;;;10.43;1.70;;;;;;;-139.48;100.00;61774.03;4973930;28;20105;-70
2021/10/06 08:48:36;;;;;;;7.80;1.50;;;;;;;-139.48;100.00;61774.03;4975048;28;20045;-71
2021/10/06 08:51:22;;;;;;;4.78;1.42;;;;;;;-139.48;100.00;61774.03;4960449;28;20050;-71
2021/10/06 08:54:06;;;;;;;5.35;1.40;;;;;;;-139.48;100.00;61774.03;4973816;28;20105;-70
2021/10/06 08:56:51;;;;;;;5.28;1.77;;;;;;;-139.48;100.00;61774.03;4974206;28;20082;-71
2021/10/06 08:59:34;;;;;;;6.70;1.70;;;;;;;-139.48;100.00;61774.03;4973981;28;20057;-71
2021/10/06 09:02:19;;;;;;;4.03;1.27;;;;;;;-139.48;100.00;61774.03;4974859;28;20053;-71
2021/10/06 09:05:04;;;;;;;5.32;1.50;;;;;;;-139.48;100.00;61774.03;4973518;28;20080;-69
2021/10/06 09:08:05;;;;;;;5.80;1.58;;;;;;;-139.48;100.00;61774.03;4973851;28;20487;-70
2021/10/06 09:10:48;;;;;;;3.92;1.35;;;;;;;-139.48;100.00;61774.03;4973589;28;20049;-70
2021/10/06 09:13:35;;;;;;;3.95;1.48;;;;;;;-139.48;100.00;61774.03;4973479;28;20105;-71
2021/10/06 09:16:20;;;;;;;2.90;1.27;;;;;;;-139.48;100.00;61774.03;4973524;28;20045;-70
2021/10/06 09:19:05;;;;;;;4.30;1.38;;;;;;;-139.48;100.00;61774.03;4973694;28;20117;-71
2021/10/06 09:21:57;;;;;;;9.35;1.42;;;;;;;-139.48;100.00;61774.03;4974401;28;20130;-71
2021/10/06 09:24:54;;;;;;;6.15;1.85;;;;;;;-139.48;100.00;61774.03;4974377;28;20058;-71
2021/10/06 09:27:40;;;;;;;4.65;1.25;;;;;;;-139.48;100.00;61774.03;4973276;28;20074;-71
2021/10/06 09:30:25;;;;;;;4.32;1.45;;;;;;;-139.48;100.00;61774.03;4974504;28;20141;-71
2021/10/06 09:33:09;;;;;;;3.58;1.20;;;;;;;-139.48;100.00;61774.03;4973480;28;20049;-71
2021/10/06 09:36:29;;;;;;;3.88;1.23;;;;;;;-139.48;100.00;61774.03;4973223;28;20052;-71
2021/10/06 09:39:12;;;;;;;3.65;1.30;;;;;;;-139.48;100.00;61774.03;4942887;28;20074;-70
2021/10/06 09:41:56;;;;;;;5.72;1.27;;;;;;;-139.48;100.00;61774.03;4973726;28;20081;-70
2021/10/06 09:44:52;;;;;;;3.65;1.85;;;;;;;-139.48;100.00;61774.03;4959778;28;20141;-71
2021/10/06 09:47:37;;;;;;;3.85;1.08;;;;;;;-139.48;100.00;61774.03;4973469;28;20050;-70
2021/10/06 09:50:22;;;;;;;5.43;1.50;;;;;;;-139.48;100.00;61774.03;4973427;28;20112;-71
2021/10/06 09:53:16;;;;;;;5.75;1.70;;;;;;;-139.48;100.00;61774.03;4973242;28;20093;-71
2021/10/06 09:56:04;;;;;;;2.28;1.00;;;;;;;-139.48;100.00;61774.03;4963465;28;20085;-71
2021/10/06 09:58:59;;;;;;;5.22;1.30;;;;;;;-139.48;100.00;61774.03;4977158;28;20521;-71
2021/10/06 10:01:45;;;;;;;5.32;1.45;;;;;;;-139.48;100.00;61774.03;4963466;28;20077;-71
2021/10/06 10:04:29;;;;;;;2.35;1.48;;;;;;;-139.48;100.00;61774.03;4963417;28;20062;-71
2021/10/06 10:07:14;;;;;;;5.03;1.13;;;;;;;-139.48;100.00;61774.03;4977747;28;20113;-71
2021/10/06 10:09:58;;;;;;;4.15;1.30;;;;;;;-139.48;100.00;61774.03;4976763;28;20054;-72
2021/10/06 10:12:42;;;;;;;4.65;1.40;;;;;;;-139.48;100.00;61774.03;4976662;28;20562;-71
2021/10/06 10:15:27;;;;;;;3.28;1.40;;;;;;;-139.48;100.00;61774.03;4977050;28;20093;-70
2021/10/06 10:18:11;;;;;;;4.00;1.15;;;;;;;-139.48;100.00;61774.03;4976810;28;20053;-71
2021/10/06 10:20:55;;;;;;;6.75;1.48;;;;;;;-139.48;100.00;61774.03;4963166;28;20519;-71
2021/10/06 10:23:39;;;;;;;3.33;1.27;;;;;;;-139.48;100.00;61774.03;4963132;28;20054;-72
2021/10/06 10:26:24;;;;;;;6.30;1.40;;;;;;;-139.48;100.00;61774.03;4976700;28;20070;-71
2021/10/06 10:29:34;;;;;;;6.30;1.80;;;;;;;-139.48;100.00;61774.03;4976563;28;20049;-71
2021/10/06 10:32:20;;;;;;;4.80;1.48;;;;;;;-139.48;100.00;61774.03;4976264;28;20097;-71
2021/10/06 10:35:06;;;;;;;5.85;1.10;;;;;;;-139.48;100.00;61774.03;4976522;28;20104;-71
2021/10/06 10:37:51;;;;;;;7.68;1.15;;;;;;;-139.48;100.00;61774.03;4977654;28;20514;-71
2021/10/06 10:40:49;;;;;;;7.47;1.60;;;;;;;-139.48;100.00;61774.03;4976166;28;20053;-71
2021/10/06 10:43:33;;;;;;;3.85;1.30;;;;;;;-139.48;100.00;61774.03;4976361;28;20106;-71
2021/10/06 10:46:17;;;;;;;4.75;1.30;;;;;;;-139.48;100.00;61774.03;4976151;28;20467;-71
2021/10/06 10:49:04;;;;;;;4.30;1.27;;;;;;;-139.48;100.00;61774.03;4962436;28;20072;-71
2021/10/06 10:51:53;;;;;;;5.75;1.17;;;;;;;-139.48;100.00;61774.03;4962558;28;20065;-71
2021/10/06 10:54:40;;;;;;;6.25;1.77;;;;;;;-139.48;100.00;61774.03;4976247;28;20416;-71
2021/10/06 10:57:25;;;;;;;4.28;1.40;;;;;;;-139.48;100.00;61774.03;4975733;28;20065;-70
2021/10/06 11:00:29;;;;;;;3.92;1.30;;;;;;;-139.48;100.00;61774.03;4977314;28;20109;-71
2021/10/06 11:03:13;;;;;;;2.75;1.15;;;;;;;-139.48;100.00;61774.03;4976247;28;20510;-71
2021/10/06 11:05:57;;;;;;;3.88;1.40;;;;;;;-139.48;100.00;61774.03;4974457;28;20097;-71
2021/10/06 11:08:41;;;;;;;4.28;1.25;;;;;;;-139.48;100.00;61774.03;4976659;28;20066;-71
2021/10/06 11:11:25;;;;;;;6.72;1.77;;;;;;;-139.48;100.00;61774.03;4962514;28;20125;-71
2021/10/06 11:14:20;;;;;;;2.50;1.30;;;;;;;-139.48;100.00;61774.03;4975604;28;20136;-71
2021/10/06 11:17:09;;;;;;;4.13;1.20;;;;;;;-139.48;100.00;61774.03;4975428;28;20053;-71
2021/10/06 11:19:55;;;;;;;5.25;1.65;;;;;;;-139.48;100.00;61774.03;4976715;28;20069;-71
2021/10/06 11:22:40;;;;;;;4.32;1.20;;;;;;;-139.48;100.00;61774.03;4975686;28;20077;-71
2021/10/06 11:25:24;;;;;;;3.13;1.17;;;;;;;-139.48;100.00;61774.03;4975358;28;20058;-72
2021/10/06 11:28:11;;;;;;;9.35;1.65;;;;;;;-139.48;100.00;61774.03;4975541;28;20049;-71
2021/10/06 11:30:56;;;;;;;7.80;1.88;;;;;;;-139.48;100.00;61774.03;4961662;28;20177;-71
2021/10/06 11:33:40;;;;;;;6.78;1.48;;;;;;;-139.48;100.00;61774.03;4974841;28;20476;-71
2021/10/06 11:36:26;;;;;;;1.42;1.05;;;;;;;-139.48;100.00;61774.03;4974913;28;20052;-71
2021/10/06 11:39:11;;;;;;;6.03;1.40;;;;;;;-139.48;100.00;61774.03;4961597;28;20049;-70
2021/10/06 11:41:55;;;;;;;3.88;1.45;;;;;;;-139.48;100.00;61774.03;4976012;28;20050;-71
2021/10/06 11:44:40;;;;;;;3.13;1.00;;;;;;;-139.48;100.00;61774.03;4975197;28;20411;-71
2021/10/06 11:47:24;;;;;;;3.03;1.30;;;;;;;-139.48;100.00;61774.03;4961269;28;20575;-71
2021/10/06 11:50:08;;;;;;;9.63;1.55;;;;;;;-139.48;100.00;61774.03;4974841;28;20506;-71
2021/10/06 11:52:56;;;;;;;5.75;1.67;;;;;;;-139.48;100.00;61774.03;4974985;28;20097;-71
2021/10/06 11:55:49;;;;;;;7.55;1.60;;;;;;;-139.48;100.00;61774.03;4974869;28;20049;-71
2021/10/06 11:58:34;;;;;;;7.00;1.63;;;;;;;-139.48;100.00;61774.03;4961097;28;20050;-70
2021/10/06 12:01:18;;;;;;;4.65;1.50;;;;;;;-139.48;100.00;61774.03;4975937;28;20093;-71
2021/10/06 12:04:13;;;;;;;9.57;1.65;;;;;;;-139.48;100.00;61774.03;4974957;28;20054;-71
2021/10/06 12:07:06;;;;;;;3.78;1.45;;;;;;;-139.48;100.00;61774.03;4974766;28;20600;-70
2021/10/06 12:09:52;;;;;;;3.13;1.40;;;;;;;-139.48;100.00;61774.03;4974796;28;20116;-70
2021/10/06 12:12:36;;;;;;;5.22;1.40;;;;;;;-139.48;100.00;61774.03;4974353;28;20109;-70
2021/10/06 12:15:23;;;;;;;6.75;1.48;;;;;;;-139.48;100.00;61774.03;4974451;28;20081;-70
2021/10/06 12:18:09;;;;;;;3.38;1.50;;;;;;;-139.48;100.00;61774.03;4975293;28;20081;-70
2021/10/06 12:20:52;;;;;;;3.05;1.35;;;;;;;-139.48;100.00;61774.03;4975599;28;20088;-70
2021/10/06 12:23:36;;;;;;;4.20;1.58;;;;;;;-139.48;100.00;61774.03;4960684;28;20077;-71
2021/10/06 12:26:21;;;;;;;4.03;1.55;;;;;;;-139.48;100.00;61774.03;4974221;28;20132;-71
2021/10/06 12:29:05;;;;;;;5.53;1.25;;;;;;;-139.48;100.00;61774.03;4974474;28;20412;-71